Terminal Aerodrome Forecast
Issued by NWS Atlanta, GA

Home | Current Version | Previous Version | Text Only | Print | Product List | Glossary On
Versions: 1 2 3 4 5 6 7 8 9 10 11 12 13 14 15 16 17 18 19 20
000
FTUS42 KFFC 241727
TAFCSG
TAF
KCSG 241727Z 2418/2518 27011KT 6SM -SHRA BKN035
      TEMPO 2418/2422 VRB15G30KT 2SM +TSRA BKN025CB
     FM242200 26011KT P6SM VCTS BKN045CB
     FM250300 26004KT P6SM VCSH BKN035
     FM250600 26004KT P6SM VCSH BKN025
     FM251400 33005KT P6SM BKN035=

USA.gov is the U.S. government's official web portal to all federal, state and local government web resources and services.